Wetterdaten: Woche 14.11.05 - 20.11.05 (KW46)
Datum Zeit Temperatur Luftfeuchte Luftdruck Niederschlag Windrichtung Wind
14.11.2005 00:00 2,7 C 94 % 1023 hPa 0,0 l/m N-NO 12,8 km/h (3 Bft)
14.11.2005 01:00 2,5 C 92 % 1023 hPa 0,0 l/m N-NO 12,9 km/h (3 Bft)
14.11.2005 02:00 2,5 C 91 % 1023 hPa 0,0 l/m O-NO 10,6 km/h (2 Bft)
14.11.2005 03:00 2,5 C 90 % 1023 hPa 0,0 l/m O-NO 12,8 km/h (3 Bft)
14.11.2005 04:00 2,4 C 88 % 1022 hPa 0,0 l/m N-NO 14,5 km/h (3 Bft)
14.11.2005 05:00 2,3 C 89 % 1022 hPa 0,0 l/m O 13,4 km/h (3 Bft)
14.11.2005 06:00 2,0 C 90 % 1023 hPa 0,0 l/m NO 13,7 km/h (3 Bft)
14.11.2005 07:00 2,0 C 92 % 1023 hPa 0,0 l/m NO 12,8 km/h (3 Bft)
14.11.2005 08:00 1,9 C 91 % 1024 hPa 0,0 l/m N-NO 13,3 km/h (3 Bft)
14.11.2005 09:00 1,8 C 91 % 1024 hPa 0,0 l/m O-NO 14,7 km/h (3 Bft)
14.11.2005 10:00 1,8 C 90 % 1024 hPa 0,0 l/m O-NO 13,4 km/h (3 Bft)
14.11.2005 11:00 1,8 C 90 % 1024 hPa 0,0 l/m O-NO 16,9 km/h (3 Bft)
14.11.2005 12:00 2,0 C 89 % 1023 hPa 0,0 l/m O-NO 14,2 km/h (3 Bft)
14.11.2005 13:00 2,0 C 89 % 1023 hPa 0,0 l/m O-NO 13,9 km/h (3 Bft)
14.11.2005 14:00 1,9 C 88 % 1022 hPa 0,0 l/m N-NO 11,9 km/h (2 Bft)
14.11.2005 15:00 1,9 C 88 % 1022 hPa 0,0 l/m O-NO 11,7 km/h (2 Bft)
14.11.2005 16:00 1,8 C 88 % 1021 hPa 0,0 l/m O-NO 10,7 km/h (2 Bft)
14.11.2005 17:00 1,8 C 89 % 1021 hPa 0,0 l/m O-NO 11,8 km/h (2 Bft)
14.11.2005 18:00 1,7 C 90 % 1021 hPa 0,0 l/m O-NO 9,0 km/h (2 Bft)
14.11.2005 19:00 1,7 C 90 % 1021 hPa 0,0 l/m O-NO 4,3 km/h (1 Bft)
14.11.2005 20:00 1,8 C 92 % 1021 hPa 0,0 l/m S-SO 2,8 km/h (1 Bft)
14.11.2005 21:00 1,9 C 93 % 1021 hPa 0,0 l/m S-SW 3,4 km/h (1 Bft)
14.11.2005 22:00 1,9 C 94 % 1020 hPa 0,0 l/m N 0,0 km/h (0 Bft)
14.11.2005 23:00 1,9 C 96 % 1019 hPa 0,0 l/m S-SW 8,3 km/h (2 Bft)
15.11.2005 00:00 1,8 C 97 % 1019 hPa 0,0 l/m SW 8,7 km/h (2 Bft)
15.11.2005 01:00 1,7 C 96 % 1018 hPa 0,0 l/m SW 7,5 km/h (2 Bft)
15.11.2005 02:00 1,4 C 95 % 1018 hPa 0,0 l/m SW 5,3 km/h (1 Bft)
15.11.2005 03:00 1,6 C 96 % 1018 hPa 0,0 l/m W-SW 8,8 km/h (2 Bft)
15.11.2005 04:00 1,9 C 97 % 1017 hPa 0,0 l/m S-SW 12,5 km/h (3 Bft)
15.11.2005 05:00 1,9 C 98 % 1017 hPa 0,0 l/m SW 9,4 km/h (2 Bft)
15.11.2005 06:00 1,9 C 98 % 1016 hPa 0,0 l/m S-SW 11,8 km/h (2 Bft)
15.11.2005 07:00 1,9 C 99 % 1015 hPa 0,0 l/m S-SW 12,3 km/h (3 Bft)
15.11.2005 08:00 2,0 C 100 % 1015 hPa 0,0 l/m S-SW 12,1 km/h (2 Bft)
15.11.2005 09:00 2,4 C 100 % 1014 hPa 0,0 l/m S-SW 11,1 km/h (2 Bft)
15.11.2005 10:00 3,2 C 98 % 1014 hPa 0,0 l/m S 12,5 km/h (3 Bft)
15.11.2005 11:00 4,3 C 93 % 1013 hPa 0,0 l/m S-SW 13,6 km/h (3 Bft)
15.11.2005 12:00 6,7 C 79 % 1012 hPa 0,0 l/m SO 13,2 km/h (3 Bft)
15.11.2005 13:00 7,3 C 75 % 1011 hPa 0,0 l/m S 13,3 km/h (3 Bft)
15.11.2005 14:00 7,9 C 75 % 1010 hPa 0,0 l/m S 10,0 km/h (2 Bft)
15.11.2005 15:00 7,9 C 74 % 1010 hPa 0,0 l/m S 12,6 km/h (3 Bft)
15.11.2005 16:00 6,2 C 80 % 1009 hPa 0,0 l/m S-SO 8,8 km/h (2 Bft)
15.11.2005 17:00 4,7 C 87 % 1009 hPa 0,0 l/m SO 4,1 km/h (1 Bft)
15.11.2005 18:00 3,9 C 91 % 1009 hPa 0,0 l/m S-SW 6,0 km/h (2 Bft)
15.11.2005 19:00 3,7 C 96 % 1009 hPa 0,0 l/m SO 6,9 km/h (2 Bft)
15.11.2005 20:00 3,7 C 99 % 1009 hPa 0,0 l/m S-SO 4,7 km/h (1 Bft)
15.11.2005 21:00 3,7 C 100 % 1009 hPa 0,0 l/m S-SO 5,6 km/h (1 Bft)
15.11.2005 22:00 3,8 C 100 % 1008 hPa 0,0 l/m O 11,0 km/h (2 Bft)
15.11.2005 23:00 3,9 C 100 % 1007 hPa 0,0 l/m S-SW 6,7 km/h (2 Bft)
16.11.2005 00:00 4,4 C 99 % 1007 hPa 0,0 l/m N 0,7 km/h (0 Bft)
16.11.2005 01:00 4,2 C 98 % 1006 hPa 0,0 l/m N 0,0 km/h (0 Bft)
16.11.2005 02:00 4,0 C 98 % 1006 hPa 0,0 l/m N 0,0 km/h (0 Bft)
16.11.2005 03:00 4,0 C 99 % 1006 hPa 0,0 l/m N 0,0 km/h (0 Bft)
16.11.2005 04:00 4,3 C 99 % 1005 hPa 0,0 l/m S-SW 1,4 km/h (1 Bft)
16.11.2005 05:00 5,3 C 97 % 1005 hPa 0,0 l/m S-SW 8,6 km/h (2 Bft)
16.11.2005 06:00 5,4 C 92 % 1004 hPa 0,0 l/m S-SW 14,0 km/h (3 Bft)
16.11.2005 07:00 6,2 C 86 % 1004 hPa 0,0 l/m SW 12,0 km/h (2 Bft)
16.11.2005 08:00 7,7 C 74 % 1003 hPa 0,0 l/m S-SW 13,7 km/h (3 Bft)
16.11.2005 09:00 8,4 C 70 % 1003 hPa 0,0 l/m W-SW 13,3 km/h (3 Bft)
16.11.2005 10:00 8,9 C 66 % 1003 hPa 0,0 l/m S-SW 16,2 km/h (3 Bft)
16.11.2005 11:00 10,4 C 54 % 1002 hPa 0,0 l/m W-SW 21,5 km/h (4 Bft)
16.11.2005 12:00 9,2 C 58 % 1002 hPa 0,0 l/m W 20,7 km/h (4 Bft)
16.11.2005 13:00 6,8 C 73 % 1001 hPa 0,0 l/m W 17,5 km/h (3 Bft)
16.11.2005 14:00 6,2 C 76 % 1001 hPa 0,0 l/m W 15,5 km/h (3 Bft)
16.11.2005 15:00 5,8 C 79 % 1002 hPa 0,0 l/m W 12,5 km/h (3 Bft)
16.11.2005 16:00 5,0 C 71 % 1002 hPa 0,0 l/m W-SW 12,7 km/h (3 Bft)
16.11.2005 17:00 4,7 C 66 % 1002 hPa 0,0 l/m W 16,6 km/h (3 Bft)
16.11.2005 18:00 4,3 C 65 % 1003 hPa 0,0 l/m W 15,3 km/h (3 Bft)
16.11.2005 19:00 4,4 C 65 % 1004 hPa 0,0 l/m W 16,1 km/h (3 Bft)
16.11.2005 20:00 4,5 C 68 % 1004 hPa 0,0 l/m W 15,2 km/h (3 Bft)
16.11.2005 21:00 3,3 C 74 % 1005 hPa 0,0 l/m W 14,1 km/h (3 Bft)
16.11.2005 22:00 3,0 C 78 % 1006 hPa 0,0 l/m W 13,4 km/h (3 Bft)
16.11.2005 23:00 2,7 C 77 % 1006 hPa 0,0 l/m W 13,9 km/h (3 Bft)
17.11.2005 00:00 1,7 C 79 % 1007 hPa 0,0 l/m W 3,8 km/h (1 Bft)
17.11.2005 01:00 0,3 C 82 % 1008 hPa 0,0 l/m N 0,0 km/h (0 Bft)
17.11.2005 02:00 -0,5 C 86 % 1008 hPa 0,0 l/m N 0,0 km/h (0 Bft)
17.11.2005 03:00 -1,0 C 89 % 1009 hPa 0,0 l/m N 0,0 km/h (0 Bft)
17.11.2005 04:00 -1,7 C 90 % 1009 hPa 0,0 l/m N 0,0 km/h (0 Bft)
17.11.2005 05:00 -2,4 C 92 % 1009 hPa 0,0 l/m N 0,0 km/h (0 Bft)
17.11.2005 06:00 -2,4 C 93 % 1010 hPa 0,0 l/m W-SW 1,5 km/h (1 Bft)
17.11.2005 07:00 -1,8 C 94 % 1010 hPa 0,0 l/m SW 1,8 km/h (1 Bft)
17.11.2005 08:00 -1,0 C 92 % 1011 hPa 0,0 l/m W-SW 4,7 km/h (1 Bft)
17.11.2005 09:00 1,1 C 75 % 1011 hPa 0,0 l/m SW 7,8 km/h (2 Bft)
17.11.2005 10:00 2,3 C 69 % 1012 hPa 0,0 l/m S-SW 11,0 km/h (2 Bft)
17.11.2005 11:00 2,9 C 65 % 1012 hPa 0,0 l/m SW 12,7 km/h (3 Bft)
17.11.2005 12:00 3,8 C 61 % 1012 hPa 0,0 l/m W-SW 10,5 km/h (2 Bft)
17.11.2005 13:00 4,0 C 58 % 1012 hPa 0,0 l/m W 13,2 km/h (3 Bft)
17.11.2005 14:00 4,1 C 56 % 1012 hPa 0,0 l/m W 13,3 km/h (3 Bft)
17.11.2005 15:00 4,0 C 54 % 1013 hPa 0,0 l/m W-SW 12,3 km/h (3 Bft)
17.11.2005 16:00 2,9 C 56 % 1013 hPa 0,0 l/m W 7,5 km/h (2 Bft)
17.11.2005 17:00 1,8 C 61 % 1014 hPa 0,0 l/m W-SW 8,3 km/h (2 Bft)
17.11.2005 18:00 1,5 C 60 % 1014 hPa 0,0 l/m W 14,2 km/h (3 Bft)
17.11.2005 19:00 1,9 C 55 % 1014 hPa 0,0 l/m W-SW 13,3 km/h (3 Bft)
17.11.2005 20:00 1,9 C 54 % 1014 hPa 0,0 l/m W-SW 11,8 km/h (2 Bft)
17.11.2005 21:00 2,1 C 57 % 1015 hPa 0,0 l/m W 14,9 km/h (3 Bft)
17.11.2005 22:00 2,0 C 60 % 1015 hPa 0,0 l/m W 16,3 km/h (3 Bft)
17.11.2005 23:00 1,8 C 61 % 1015 hPa 0,0 l/m W 14,2 km/h (3 Bft)
18.11.2005 00:00 1,5 C 64 % 1016 hPa 0,0 l/m W 11,1 km/h (2 Bft)
18.11.2005 01:00 0,7 C 82 % 1016 hPa 0,0 l/m W 8,6 km/h (2 Bft)
18.11.2005 02:00 0,3 C 88 % 1016 hPa 0,0 l/m S-SW 0,4 km/h (0 Bft)
18.11.2005 03:00 0,1 C 86 % 1016 hPa 0,0 l/m W-SW 2,9 km/h (1 Bft)
18.11.2005 04:00 -0,1 C 89 % 1016 hPa 0,0 l/m SW 6,4 km/h (2 Bft)
18.11.2005 05:00 -0,1 C 93 % 1016 hPa 0,0 l/m S-SW 8,4 km/h (2 Bft)
18.11.2005 06:00 -0,1 C 92 % 1016 hPa 0,0 l/m SW 3,7 km/h (1 Bft)
18.11.2005 07:00 0,0 C 94 % 1017 hPa 0,0 l/m SW 8,3 km/h (2 Bft)
18.11.2005 08:00 0,2 C 92 % 1017 hPa 0,0 l/m S-SW 9,0 km/h (2 Bft)
18.11.2005 09:00 0,6 C 89 % 1018 hPa 0,0 l/m S-SW 7,4 km/h (2 Bft)
18.11.2005 10:00 1,5 C 86 % 1019 hPa 0,0 l/m S 7,1 km/h (2 Bft)
18.11.2005 11:00 2,3 C 80 % 1019 hPa 1,0 l/m W-SW 6,9 km/h (2 Bft)
18.11.2005 12:00 1,9 C 81 % 1018 hPa 0,0 l/m W 2,3 km/h (1 Bft)
18.11.2005 13:00 2,5 C 87 % 1018 hPa 0,0 l/m S-SW 5,3 km/h (1 Bft)
18.11.2005 14:00 2,4 C 85 % 1019 hPa 0,0 l/m S-SW 5,5 km/h (1 Bft)
18.11.2005 15:00 1,4 C 88 % 1019 hPa 0,0 l/m S 5,7 km/h (1 Bft)
18.11.2005 16:00 0,7 C 91 % 1020 hPa 0,0 l/m N 0,0 km/h (0 Bft)
18.11.2005 17:00 0,5 C 93 % 1020 hPa 0,0 l/m N 0,0 km/h (0 Bft)
18.11.2005 18:00 0,1 C 93 % 1020 hPa 0,0 l/m N 0,0 km/h (0 Bft)
18.11.2005 19:00 -0,4 C 94 % 1021 hPa 0,0 l/m N 0,0 km/h (0 Bft)
18.11.2005 20:00 -1,1 C 95 % 1021 hPa 1,0 l/m N 0,0 km/h (0 Bft)
18.11.2005 21:00 -1,1 C 96 % 1022 hPa 0,0 l/m N 0,0 km/h (0 Bft)
18.11.2005 22:00 -1,4 C 97 % 1022 hPa 0,0 l/m N 0,0 km/h (0 Bft)
18.11.2005 23:00 -1,3 C 98 % 1022 hPa 0,0 l/m N 0,0 km/h (0 Bft)
19.11.2005 00:00 -0,9 C 98 % 1022 hPa 0,0 l/m N 0,0 km/h (0 Bft)
19.11.2005 01:00 -1,3 C 99 % 1023 hPa 0,0 l/m N 0,0 km/h (0 Bft)
19.11.2005 02:00 -1,9 C 99 % 1023 hPa 0,0 l/m N 0,0 km/h (0 Bft)
19.11.2005 03:00 -2,2 C 99 % 1023 hPa 0,0 l/m N 0,0 km/h (0 Bft)
19.11.2005 04:00 -3,1 C 99 % 1024 hPa 0,0 l/m N 0,0 km/h (0 Bft)
19.11.2005 05:00 -4,0 C 99 % 1024 hPa 0,0 l/m N 0,0 km/h (0 Bft)
19.11.2005 06:00 -4,8 C 98 % 1025 hPa 0,0 l/m N 0,0 km/h (0 Bft)
19.11.2005 07:00 -5,0 C 99 % 1025 hPa 0,0 l/m N 0,0 km/h (0 Bft)
19.11.2005 08:00 -5,0 C 99 % 1026 hPa 0,0 l/m N 0,0 km/h (0 Bft)
19.11.2005 09:00 -4,1 C 100 % 1027 hPa 0,0 l/m N 0,0 km/h (0 Bft)
19.11.2005 10:00 -2,1 C 100 % 1027 hPa 0,0 l/m N 0,0 km/h (0 Bft)
19.11.2005 11:00 -0,4 C 100 % 1027 hPa 0,0 l/m N 0,0 km/h (0 Bft)
19.11.2005 12:00 1,4 C 83 % 1027 hPa 1,0 l/m N 0,0 km/h (0 Bft)
19.11.2005 13:00 1,3 C 72 % 1027 hPa 0,0 l/m N 0,0 km/h (0 Bft)
19.11.2005 14:00 0,9 C 75 % 1027 hPa 0,0 l/m N 0,0 km/h (0 Bft)
19.11.2005 15:00 0,3 C 78 % 1027 hPa 0,0 l/m N 0,0 km/h (0 Bft)
19.11.2005 16:00 -0,5 C 80 % 1027 hPa 0,0 l/m N 0,0 km/h (0 Bft)
19.11.2005 17:00 -1,9 C 83 % 1028 hPa 0,0 l/m N 0,0 km/h (0 Bft)
19.11.2005 18:00 -2,8 C 87 % 1028 hPa 0,0 l/m N 0,0 km/h (0 Bft)
19.11.2005 19:00 -3,6 C 88 % 1028 hPa 0,0 l/m N 0,0 km/h (0 Bft)
19.11.2005 20:00 -4,3 C 89 % 1028 hPa 0,0 l/m N 0,0 km/h (0 Bft)
19.11.2005 21:00 -4,6 C 91 % 1029 hPa 0,0 l/m N 0,0 km/h (0 Bft)
19.11.2005 22:00 -5,1 C 91 % 1029 hPa 0,0 l/m N 0,0 km/h (0 Bft)
19.11.2005 23:00 -5,6 C 92 % 1029 hPa 0,0 l/m N 0,0 km/h (0 Bft)
20.11.2005 00:00 -6,0 C 92 % 1029 hPa 0,0 l/m N 0,0 km/h (0 Bft)
20.11.2005 01:00 -6,4 C 92 % 1029 hPa 0,0 l/m N 0,0 km/h (0 Bft)
20.11.2005 02:00 -6,7 C 92 % 1029 hPa 0,0 l/m N 0,0 km/h (0 Bft)
20.11.2005 03:00 -7,1 C 92 % 1030 hPa 0,0 l/m N 0,0 km/h (0 Bft)
20.11.2005 04:00 -7,3 C 92 % 1030 hPa 0,0 l/m N 0,0 km/h (0 Bft)
20.11.2005 05:00 -7,6 C 92 % 1030 hPa 0,0 l/m N 0,0 km/h (0 Bft)
20.11.2005 06:00 -7,9 C 92 % 1030 hPa 0,0 l/m N 0,0 km/h (0 Bft)
20.11.2005 07:00 -7,9 C 92 % 1030 hPa 0,0 l/m N 0,0 km/h (0 Bft)
20.11.2005 08:00 -7,4 C 92 % 1030 hPa 0,0 l/m N 0,0 km/h (0 Bft)
20.11.2005 09:00 -5,8 C 94 % 1030 hPa 0,0 l/m N 0,0 km/h (0 Bft)
20.11.2005 10:00 -3,0 C 95 % 1031 hPa 0,0 l/m N 0,0 km/h (0 Bft)
20.11.2005 11:00 -0,9 C 86 % 1030 hPa 0,0 l/m N 0,0 km/h (0 Bft)
20.11.2005 12:00 -0,1 C 80 % 1030 hPa 0,0 l/m N 0,0 km/h (0 Bft)
20.11.2005 13:00 1,4 C 75 % 1030 hPa 0,0 l/m N 0,0 km/h (0 Bft)
20.11.2005 14:00 1,5 C 75 % 1029 hPa 0,0 l/m N 0,0 km/h (0 Bft)
20.11.2005 15:00 0,7 C 79 % 1029 hPa 0,0 l/m N 0,0 km/h (0 Bft)
20.11.2005 16:00 0,3 C 79 % 1029 hPa 0,0 l/m N 0,0 km/h (0 Bft)
20.11.2005 17:00 0,1 C 82 % 1029 hPa 0,0 l/m N 0,0 km/h (0 Bft)
20.11.2005 18:00 0,0 C 84 % 1029 hPa 0,0 l/m N 0,0 km/h (0 Bft)
20.11.2005 19:00 -0,3 C 86 % 1029 hPa 0,0 l/m N 0,0 km/h (0 Bft)
20.11.2005 20:00 -0,4 C 87 % 1029 hPa 0,0 l/m N 0,0 km/h (0 Bft)
20.11.2005 21:00 -0,4 C 87 % 1029 hPa 0,0 l/m N 0,0 km/h (0 Bft)
20.11.2005 22:00 -0,1 C 85 % 1029 hPa 0,0 l/m N 0,0 km/h (0 Bft)
20.11.2005 23:00 0,5 C 74 % 1029 hPa 0,0 l/m N 0,0 km/h (0 Bft)
Min-Datum _ 20.11.05 16.11.05 16.11.05 - - 14.11.05
_ Min-Zeit 06:22 11:28 12:00 - - 00:03
Minimum _ -8,0 C 52 % 1001 hPa - - 0,0 km/h (0 Bft)
Max-Datum _ 16.11.05 15.11.05 20.11.05 18.11.05 - 16.11.05
_ Max-Zeit 11:46 07:32 10:46 11:56 - 11:36
Maximum _ 10,8 C 100 % 1031 hPa 1,0 l/m - 33,8 km/h
W-SW (5 Bft)
Durchschnitt _ 1,1 C 86 % 1018 hPa #3,0 l/m W-SW 6,4 km/h (2 Bft)

Durchschnitt Minimum Temp.0,8 C
Durchschnitt Maximum Temp.1,4 C